createdAt,value
2023-03-07T00:04:36.236Z,97246.95
2023-03-07T00:14:43.517Z,97238.44
2023-03-07T00:24:50.465Z,97236.45
2023-03-07T00:34:59.176Z,97238.28
2023-03-07T00:45:05.421Z,97229.91
2023-03-07T00:55:13.147Z,97223.21
2023-03-07T01:05:20.348Z,97219.67
2023-03-07T01:15:27.712Z,97211.16
2023-03-07T01:25:38.134Z,97207.96
2023-03-07T01:35:45.265Z,97203.50
2023-03-07T01:46:27.028Z,97198.00
2023-03-07T01:56:34.423Z,97190.61
2023-03-07T02:06:42.056Z,97179.90
2023-03-07T02:16:49.732Z,97173.54
2023-03-07T02:26:58.250Z,97171.19
2023-03-07T02:37:10.097Z,97172.89
2023-03-07T02:47:18.061Z,97165.77
2023-03-07T02:57:28.061Z,97161.68
2023-03-07T03:07:35.384Z,97156.14
2023-03-07T03:17:43.106Z,97152.36
2023-03-07T03:27:50.278Z,97151.84
2023-03-07T03:37:57.975Z,97156.04
2023-03-07T03:48:05.006Z,97155.31
2023-03-07T03:58:12.359Z,97150.66
2023-03-07T04:08:22.403Z,97152.83
2023-03-07T04:18:29.442Z,97148.21
2023-03-07T04:28:51.096Z,97151.61
2023-03-07T04:38:58.193Z,97147.02
2023-03-07T04:49:05.554Z,97145.02
2023-03-07T04:59:12.724Z,97143.66
2023-03-07T05:09:19.891Z,97139.54
2023-03-07T05:19:27.231Z,97124.25
2023-03-07T05:29:32.022Z,97128.05
2023-03-07T05:39:39.172Z,97131.09
2023-03-07T05:49:46.225Z,97124.41
2023-03-07T05:59:53.344Z,97120.17
2023-03-07T06:10:00.622Z,97114.13
2023-03-07T06:20:07.593Z,97119.15
2023-03-07T06:30:16.154Z,97115.90
2023-03-07T06:40:22.618Z,97106.17
2023-03-07T06:50:35.093Z,97104.05
2023-03-07T07:00:42.964Z,97102.70
2023-03-07T07:10:50.282Z,97092.31
2023-03-07T07:20:54.975Z,97078.13
2023-03-07T07:31:03.713Z,97074.52
2023-03-07T07:41:11.010Z,97066.09
2023-03-07T07:51:18.562Z,97060.27
2023-03-07T08:01:25.570Z,97052.45
2023-03-07T08:11:31.772Z,97036.88
2023-03-07T08:21:38.881Z,97032.39
2023-03-07T08:31:46.234Z,97032.09
2023-03-07T08:41:56.020Z,97031.17
2023-03-07T08:52:03.182Z,97028.46
2023-03-07T09:02:11.024Z,97019.83
2023-03-07T09:12:18.286Z,97018.02
2023-03-07T09:22:25.567Z,97006.33
2023-03-07T09:32:33.400Z,96990.40
2023-03-07T09:52:47.434Z,96962.08
2023-03-07T10:02:55.588Z,96941.96
2023-03-07T10:13:16.141Z,96928.05
2023-03-07T10:24:06.065Z,96925.82
2023-03-07T10:34:25.647Z,96913.84
2023-03-07T10:44:36.130Z,96896.46
2023-03-07T10:54:43.347Z,96886.72
2023-03-07T11:04:48.487Z,96877.25
2023-03-07T11:14:58.188Z,96870.89
2023-03-07T11:25:08.065Z,96872.54
2023-03-07T11:35:14.101Z,96862.17
2023-03-07T11:45:25.422Z,96845.77
2023-03-07T11:55:30.705Z,96836.77
2023-03-07T12:05:39.650Z,96828.34
2023-03-07T12:15:46.149Z,96822.80
2023-03-07T12:25:56.692Z,96814.83
2023-03-07T12:36:10.115Z,96798.15
2023-03-07T12:46:16.744Z,96793.02
2023-03-07T12:56:28.103Z,96783.26
2023-03-07T13:06:40.093Z,96793.77
2023-03-07T13:16:48.256Z,96789.44
2023-03-07T13:26:56.667Z,96779.77
2023-03-07T13:37:41.016Z,96778.70
2023-03-07T13:47:46.038Z,96779.08
2023-03-07T13:57:55.163Z,96764.56
2023-03-07T14:08:01.941Z,96758.57
2023-03-07T14:18:16.710Z,96751.05
2023-03-07T14:28:26.145Z,96750.75
2023-03-07T14:38:34.156Z,96748.84
2023-03-07T14:48:47.532Z,96746.48
2023-03-07T14:58:55.356Z,96744.21
2023-03-07T15:09:08.531Z,96728.98
2023-03-07T15:19:22.772Z,96719.88
2023-03-07T15:29:33.121Z,96713.45
2023-03-07T15:39:40.737Z,96715.05
2023-03-07T15:49:51.017Z,96718.46
2023-03-07T15:59:59.486Z,96708.77
2023-03-07T16:10:06.052Z,96695.06
2023-03-07T16:20:14.861Z,96686.66
2023-03-07T16:30:25.688Z,96688.81
2023-03-07T16:40:34.446Z,96690.86
2023-03-07T16:50:42.105Z,96692.48
2023-03-07T17:00:49.643Z,96695.78
2023-03-07T17:10:57.388Z,96694.44
2023-03-07T17:21:04.661Z,96690.36
2023-03-07T17:31:11.427Z,96698.88
2023-03-07T17:41:18.029Z,96699.27
2023-03-07T17:51:25.167Z,96701.23
2023-03-07T18:01:30.594Z,96695.40
2023-03-07T18:11:38.022Z,96692.34
2023-03-07T18:21:45.836Z,96689.80
2023-03-07T18:31:53.578Z,96699.08
2023-03-07T18:42:00.964Z,96698.38
2023-03-07T18:52:08.073Z,96712.02
2023-03-07T19:02:15.161Z,96720.58
2023-03-07T19:12:22.885Z,96710.14
2023-03-07T19:22:30.256Z,96689.98
2023-03-07T19:32:37.471Z,96675.38
2023-03-07T19:42:44.876Z,96672.34
2023-03-07T19:52:51.945Z,96669.46
2023-03-07T20:03:00.328Z,96668.98
2023-03-07T20:13:08.304Z,96674.27
2023-03-07T20:23:15.353Z,96672.02
2023-03-07T20:33:23.096Z,96671.77
2023-03-07T20:43:30.168Z,96675.14
2023-03-07T20:53:37.286Z,96673.30
2023-03-07T21:03:44.637Z,96677.63
2023-03-07T21:13:52.323Z,96676.15
2023-03-07T21:24:00.337Z,96679.48
2023-03-07T21:34:09.704Z,96675.66
2023-03-07T21:44:17.686Z,96675.42
2023-03-07T22:04:31.068Z,96674.75
2023-03-07T22:14:38.776Z,96676.23
2023-03-07T22:24:45.804Z,96684.25
2023-03-07T22:34:53.030Z,96679.46
2023-03-07T22:45:00.123Z,96675.48
2023-03-07T22:55:07.999Z,96683.89
2023-03-07T23:15:22.042Z,96692.98
2023-03-07T23:25:29.118Z,96691.34
2023-03-07T23:35:34.913Z,96696.84
2023-03-07T23:45:42.402Z,96699.04
2023-03-07T23:55:49.492Z,96701.64
